Impacts METAR Board
IDs:

KSLC - Salt Lake City Intl, UT, US

Updated at: 2000 UTC 21 Sep 2021
Potential Impact None Slight Moderate High
Time 21/08Z 21/09Z 21/10Z 21/11Z 21/12Z 21/13Z 21/14Z 21/15Z 21/16Z 21/17Z 21/18Z 21/19Z 21/20Z
Temp51 49 50 49 47 44 48 52 57 61 64 66 69
Dewpt31 32 31 29 30 35 38 33 28 27 22 22 21
Altim30.43 30.43 30.44 30.44 30.46 30.48 30.49 30.50 30.51 30.51 30.50 30.48 30.46
VIS10 10 10 10 10 10 10 10 10 10 10 10 10
CIG-- -- -- -- -- -- -- -- -- -- -- -- --
CoverCLRCLRCLRCLRCLRCLRFEWFEWFEWFEWFEWCLRCLR
FltCatVFRVFRVFRVFRVFRVFRVFRVFRVFRVFRVFRVFRVFR
WX--------------------------
WDir00170160300016016015019000
WSpd0 0 7 5 3 0 0 4 7 4 5 0 0
WGst-- -- -- -- -- -- -- -- -- -- -- -- --
Raw hourly METARs
KSLC 210754Z 00000KT 10SM CLR 11/M01 A3043 RMK AO2 SLP278 T01061006
KSLC 210854Z 00000KT 10SM CLR 09/00 A3043 RMK AO2 SLP281 T00940000 53004
KSLC 210954Z 17007KT 10SM CLR 10/M01 A3044 RMK AO2 SLP281 T01001006
KSLC 211054Z 16005KT 10SM CLR 09/M02 A3044 RMK AO2 SLP283 T00941017
KSLC 211154Z 03003KT 10SM CLR 08/M01 A3046 RMK AO2 SLP291 T00831011 10122 20083 53007
KSLC 211254Z 00000KT 10SM CLR 07/02 A3048 RMK AO2 SLP302 T00670017
KSLC 211354Z 00000KT 10SM FEW200 09/03 A3049 RMK AO2 SLP306 T00890033
KSLC 211454Z 16004KT 10SM FEW030 FEW200 11/01 A3050 RMK AO2 SLP309 FU FEW030 FU DSNT SW T01110006 51014
KSLC 211554Z 16007KT 10SM FEW030 FEW200 14/M02 A3051 RMK AO2 SLP309 FU FEW030 FU DSNT SW-W T01391022
KSLC 211654Z 15004KT 10SM FEW200 16/M03 A3051 RMK AO2 SLP305 T01611028
KSLC 211754Z 19005KT 10SM FEW200 18/M06 A3050 RMK AO2 SLP301 T01781056 10178 20067 58002
KSLC 211854Z 00000KT 10SM CLR 19/M06 A3048 RMK AO2 SLP295 T01891056
KSLC 211954Z 00000KT 10SM CLR 21/M06 A3046 RMK AO2 SLP287 T02061061



Page loaded:  20:02 UTC  |   01:02 PM Pacific  |   02:02 PM Mountain  |   03:02 PM Central  |   04:02 PM Eastern

 

ADVISORIES

FORECASTS

FORECASTS

OBSERVATIONS

USER TOOLS

ABOUT US